Assembly Point, NY

10:47 AM EST on December 21, 2014 (GMT -0500)
Mohawk Mountain Road, Lake George, NY | Change Station
CLOSE
Current Station
Personal Weather Station
Location: Lake George, NY
Elevation: 942 ft
Nearby Weather Stations

Elev 942 ft 43.39 °N, 73.73 °W | Updated 12 minutes ago

Overcast
Overcast
26.2 °F
Feels Like 26 °F
N
0.0
Wind Variable Wind from North

Today
High -- | Low -- °F
--% Chance of Precip.
Yesterday
High -- | Low -- °F
Precip. -- in
7:24 AM 4:21 PM
Waning Crescent, 0% visible
Pressure 30.36 in
Visibility 2.5 miles
Clouds Few 1100 ft
Overcast 2600 ft
Windchill 26 °F
Dew Point 24 °F
Humidity 92%
Rainfall 0.00 in
Snow Depth Not available.
UV 0 out of 12
Pollen .10 out of 12
Air Quality Not available.
Flu Activity Not available.
SPECI KGFL 211529Z AUTO 00000KT 2 1/2SM BR FEW011 OVC026 M04/M06 A3036 RMK AO2 SNB03E28 P0000 T10391056

More Conditions Fewer Conditions

Pressure 30.36 in
Visibility 2.5 miles
Clouds Few 1100 ft
Overcast 2600 ft
Windchill 26 °F
Dew Point 24 °F
Humidity 92%
Rainfall 0.00 in
Snow Depth Not available.
UV 0 out of 12
Pollen .10 out of 12
Air Quality Not available.
Flu Activity Not available.
SPECI KGFL 211529Z AUTO 00000KT 2 1/2SM BR FEW011 OVC026 M04/M06 A3036 RMK AO2 SNB03E28 P0000 T10391056

More Conditions Fewer Conditions

10-Day Weather Forecast

Almanac

Astronomy

Dec. 21, 2014 Rise Set
Actual Time
Civil Twilight
Nautical Twilight
Astronomical Twilight
Moon
Length of Visible Light
Length of Day
Tomorrow will be .
, % of the Moon is Illuminated

Today's Extremes

State Highs State Lows

Community

WunderPhotos

Upload Photos

1,779,412 photos uploaded!

WunderBlogs® & News

Nearby

Air Quality

  Air Quality AQ Index Pollutant
Not available.

Snow Depth

Station Depth Elevation

Earthquake Activity

City Distance Mag. Time & Date
Minimum magnitude displayed is 2.5.

Coastal Water Temperatures

Place Temperature

Nearby Weather Stations